X  Zatvori METAR podaci zračne luke     KBFM Mobile Downtown Airport
Temperatura
82°F Temperatura
77°F Točka rosišta
84% Vlaga



Vjetar
7 MPS
11 KM/S
3 M/S
6 Čvorovi



140°
JI
Trenutna situacija

Djelimično oblačno Djelimično oblačno
Tlak zraka 1017.32 (hPa) - 30.04 (inHg)
Vidljivost 10 (milje) - 16.1 (km)
Zračna luka
Kôd zračne luke KBFM

Lokacija: Mobile Downtown Airport
Udaljenost: 8 (mi)

Metar:
KBFM 030453Z 14006KT 10SM FEW020 28/25 A3004 RMK AO2 SLP173 T02780250

Vrijeme: 02-07-2022 11:53 pm CDT